Details From OMDB - Dubai Intl
To OPKC - Karachi Jinnah Intl
Flight Number -
Tags Generated
Created
Modified
Stats Distance 642 nm / 1,189 km
Max Altitude 0 ft / 0 m
Waypoints 4
Social Downloads 0
Likes 0
Share VATSIM

Download

Looking for another format? Having issues loading an existing format? Contact us
Advertisement - Login to hide

Notes

Generated

Route

OMDB EGRON KC025 OPKC

ID Type Via Altitude Latitude Longitude Leg Dist Tot Dist Heading (true) Name
O OMDB APT - 0 ft / 0 m 25.26213˚ 55.34757˚ - 0 nm - -
EGRON FIX - 0 ft / 0 m 25.07889˚ 61.54583˚ 337 nm 337 nm 91° / 93° -
KC025 FIX - 0 ft / 0 m 24.89894˚ 67.13257˚ 304 nm 641 nm 91° / 93° -
O OPKC APT - 0 ft / 0 m 24.90471˚ 67.14755˚ 0 nm 642 nm 67° / 67° -

Altitude Profile

Advertisement - Login to hide

Weather


0- 5 10 15 20 25 30 35+ Temperature / ° C

Clouds and Precipitation
Forecast for 2017-12-12 12:00 UTC. Updated 2 hours ago

Ground ~20,000 ft ~40,000 ft Winds

OMDB

Details ICAO OMDB (DXB)
Name DUBAI INTL
Region United Arab Emirates
Timezone Asia/Dubai (UTC+4.0)
Stats Elevation 62 ft / 19 m (AMSL)
Location 25.254912° 55.364260°
Runways 2
Magnetic Variation 2.047° E

METAR

OMDB 121000Z 28014KT 240V320 9999 SCT040 25/13 Q1015 NOSIG

Decode

TAF

TAF OMDB 120456Z 1206/1312 28012KT 9999 SCT035 BECMG 1215/1217 10007KT PROB30 TEMPO 1307/1312 10015G25KT 4000 BLDU

Decode

Departure Runways

ID Width Length Bearing (true) Bearing (mag) Surface Threshold Offset Overrun Length
12L 197 ft / 60 m 13,124 ft / 4,000 m 121.49° 119.44° Asphalt 1,312 ft / 400 m 395 ft / 120 m
12R 151 ft / 46 m 13,139 ft / 4,005 m 121.48° 119.43° Asphalt 394 ft / 120 m 197 ft / 60 m
30L 151 ft / 46 m 13,139 ft / 4,005 m 301.50° 299.45° Asphalt 2,953 ft / 900 m 197 ft / 60 m
30R 197 ft / 60 m 13,124 ft / 4,000 m 301.51° 299.46° Asphalt 0 ft / 0 m 395 ft / 120 m

OPKC

Details ICAO OPKC (KHI)
Name Karachi Jinnah Intl
Region Pakistan
Timezone Asia/Karachi (UTC+5.0)
Stats Elevation 100 ft / 30 m (AMSL)
Location 24.906547° 67.160797°
Runways 2
Magnetic Variation 1.072° E

METAR

OPKC 121025Z 27012KT 7000 NSC 27/M13 Q1013 NOSIG

Decode

TAF

Not found

Destination Runways

ID Width Length Bearing (true) Bearing (mag) Surface Threshold Offset Overrun Length
07L 151 ft / 46 m 10,451 ft / 3,186 m 74.40° 73.33° Concrete 0 ft / 0 m 1,000 ft / 305 m
07R 151 ft / 46 m 11,145 ft / 3,397 m 74.22° 73.15° Concrete 0 ft / 0 m 990 ft / 302 m
25L 151 ft / 46 m 11,145 ft / 3,397 m 254.24° 253.17° Concrete 0 ft / 0 m 625 ft / 191 m
25R 151 ft / 46 m 10,451 ft / 3,186 m 254.41° 253.34° Concrete 0 ft / 0 m 1,000 ft / 305 m

Approach Navaids

Runway Type Ident Frequency Range Bearing (true) Bearing (mag) Slope Elevation
25R Localiser IKC 109.70 MHz 18 nm / 33 km 253.38° 252.31° - 90 ft / 27 m (AMSL)
25R Glidescope IKC 109.70 MHz 10 nm / 19 km 254.41° 253.34° 3.00° 156 ft / 48 m (AMSL)
25R DME IKC 109.70 MHz 18 nm / 33 km - - - 156 ft / 48 m (AMSL)

Popular Alternatives